sensor_id;sensor_type;location;lat;lon;timestamp;temperature;humidity
435;DHT22;204;48.942;9.256;2024-02-26T00:02:13;9.00;99.90
435;DHT22;204;48.942;9.256;2024-02-26T00:04:39;9.00;99.90
435;DHT22;204;48.942;9.256;2024-02-26T00:07:05;9.00;99.90
435;DHT22;204;48.942;9.256;2024-02-26T00:09:31;9.00;99.90
435;DHT22;204;48.942;9.256;2024-02-26T00:11:56;9.10;99.90
435;DHT22;204;48.942;9.256;2024-02-26T00:14:23;9.10;99.90
435;DHT22;204;48.942;9.256;2024-02-26T00:16:49;9.20;99.90
435;DHT22;204;48.942;9.256;2024-02-26T00:19:14;9.20;99.90
435;DHT22;204;48.942;9.256;2024-02-26T00:21:41;9.20;99.90
435;DHT22;204;48.942;9.256;2024-02-26T00:24:09;9.20;99.90
435;DHT22;204;48.942;9.256;2024-02-26T00:26:34;9.20;99.90
435;DHT22;204;48.942;9.256;2024-02-26T00:29:00;9.30;99.90
435;DHT22;204;48.942;9.256;2024-02-26T00:31:25;9.30;99.90
435;DHT22;204;48.942;9.256;2024-02-26T00:33:51;9.20;99.90
435;DHT22;204;48.942;9.256;2024-02-26T00:36:16;9.20;99.90
435;DHT22;204;48.942;9.256;2024-02-26T00:38:44;9.30;99.90
435;DHT22;204;48.942;9.256;2024-02-26T00:41:11;9.30;99.90
435;DHT22;204;48.942;9.256;2024-02-26T00:43:37;9.20;99.90
435;DHT22;204;48.942;9.256;2024-02-26T00:46:04;9.10;99.90
435;DHT22;204;48.942;9.256;2024-02-26T00:48:30;9.10;99.90
435;DHT22;204;48.942;9.256;2024-02-26T00:50:55;9.00;99.90
435;DHT22;204;48.942;9.256;2024-02-26T00:53:21;9.00;99.90
435;DHT22;204;48.942;9.256;2024-02-26T00:55:47;8.90;99.90
435;DHT22;204;48.942;9.256;2024-02-26T00:58:12;8.90;99.90
435;DHT22;204;48.942;9.256;2024-02-26T01:00:38;8.80;99.90
435;DHT22;204;48.942;9.256;2024-02-26T01:03:03;8.80;99.90
435;DHT22;204;48.942;9.256;2024-02-26T01:05:30;8.90;99.90
435;DHT22;204;48.942;9.256;2024-02-26T01:07:55;8.90;99.90
435;DHT22;204;48.942;9.256;2024-02-26T01:10:21;8.90;99.90
435;DHT22;204;48.942;9.256;2024-02-26T01:12:46;8.90;99.90
435;DHT22;204;48.942;9.256;2024-02-26T01:15:13;9.00;99.90
435;DHT22;204;48.942;9.256;2024-02-26T01:17:38;9.00;99.90
435;DHT22;204;48.942;9.256;2024-02-26T01:20:04;9.00;99.90
435;DHT22;204;48.942;9.256;2024-02-26T01:22:30;9.10;99.90
435;DHT22;204;48.942;9.256;2024-02-26T01:24:56;9.10;99.90
435;DHT22;204;48.942;9.256;2024-02-26T01:27:22;9.10;99.90
435;DHT22;204;48.942;9.256;2024-02-26T01:29:52;9.10;99.90
435;DHT22;204;48.942;9.256;2024-02-26T01:32:17;9.10;99.90
435;DHT22;204;48.942;9.256;2024-02-26T01:34:43;9.10;99.90
435;DHT22;204;48.942;9.256;2024-02-26T01:37:08;9.10;99.90
435;DHT22;204;48.942;9.256;2024-02-26T01:39:34;9.00;99.90
435;DHT22;204;48.942;9.256;2024-02-26T01:42:01;9.00;99.90
435;DHT22;204;48.942;9.256;2024-02-26T01:44:26;9.10;99.90
435;DHT22;204;48.942;9.256;2024-02-26T01:46:53;9.10;99.90
435;DHT22;204;48.942;9.256;2024-02-26T01:49:19;9.00;99.90
435;DHT22;204;48.942;9.256;2024-02-26T01:51:45;9.00;99.90
435;DHT22;204;48.942;9.256;2024-02-26T01:54:11;9.00;99.90
435;DHT22;204;48.942;9.256;2024-02-26T01:56:38;8.80;99.90
435;DHT22;204;48.942;9.256;2024-02-26T01:59:05;8.70;99.90
435;DHT22;204;48.942;9.256;2024-02-26T02:01:32;8.60;99.90
435;DHT22;204;48.942;9.256;2024-02-26T02:03:59;8.70;99.90
435;DHT22;204;48.942;9.256;2024-02-26T02:06:25;8.70;99.90
435;DHT22;204;48.942;9.256;2024-02-26T02:08:52;8.70;99.90
435;DHT22;204;48.942;9.256;2024-02-26T02:11:18;8.70;99.90
435;DHT22;204;48.942;9.256;2024-02-26T02:13:43;8.80;99.90
435;DHT22;204;48.942;9.256;2024-02-26T02:16:09;8.80;99.90
435;DHT22;204;48.942;9.256;2024-02-26T02:18:35;8.80;99.90
435;DHT22;204;48.942;9.256;2024-02-26T02:21:01;8.90;99.90
435;DHT22;204;48.942;9.256;2024-02-26T02:23:27;8.90;99.90
435;DHT22;204;48.942;9.256;2024-02-26T02:25:53;8.90;99.90
435;DHT22;204;48.942;9.256;2024-02-26T02:28:20;8.90;99.90
435;DHT22;204;48.942;9.256;2024-02-26T02:30:46;8.90;99.90
435;DHT22;204;48.942;9.256;2024-02-26T02:33:12;9.00;99.90
435;DHT22;204;48.942;9.256;2024-02-26T02:35:38;9.00;99.90
435;DHT22;204;48.942;9.256;2024-02-26T02:38:04;9.00;99.90
435;DHT22;204;48.942;9.256;2024-02-26T02:40:29;8.90;99.90
435;DHT22;204;48.942;9.256;2024-02-26T02:42:55;8.90;99.90
435;DHT22;204;48.942;9.256;2024-02-26T02:45:20;8.90;99.90
435;DHT22;204;48.942;9.256;2024-02-26T02:47:46;8.90;99.90
435;DHT22;204;48.942;9.256;2024-02-26T02:50:11;8.90;99.90
435;DHT22;204;48.942;9.256;2024-02-26T02:52:37;8.90;99.90
435;DHT22;204;48.942;9.256;2024-02-26T02:55:03;8.80;99.90
435;DHT22;204;48.942;9.256;2024-02-26T02:57:30;8.80;99.90
435;DHT22;204;48.942;9.256;2024-02-26T02:59:56;8.80;99.90
435;DHT22;204;48.942;9.256;2024-02-26T03:02:21;8.80;99.90
435;DHT22;204;48.942;9.256;2024-02-26T03:04:47;8.90;99.90
435;DHT22;204;48.942;9.256;2024-02-26T03:07:12;8.90;99.90
435;DHT22;204;48.942;9.256;2024-02-26T03:09:38;8.90;99.90
435;DHT22;204;48.942;9.256;2024-02-26T03:12:04;8.90;99.90
435;DHT22;204;48.942;9.256;2024-02-26T03:14:29;8.90;99.90
435;DHT22;204;48.942;9.256;2024-02-26T03:16:55;8.80;99.90
435;DHT22;204;48.942;9.256;2024-02-26T03:19:21;8.80;99.90
435;DHT22;204;48.942;9.256;2024-02-26T03:21:46;8.80;99.90
435;DHT22;204;48.942;9.256;2024-02-26T03:24:12;8.80;99.90
435;DHT22;204;48.942;9.256;2024-02-26T03:26:38;8.80;99.90
435;DHT22;204;48.942;9.256;2024-02-26T03:29:04;8.80;99.90
435;DHT22;204;48.942;9.256;2024-02-26T03:31:29;8.70;99.90
435;DHT22;204;48.942;9.256;2024-02-26T03:33:55;8.60;99.90
435;DHT22;204;48.942;9.256;2024-02-26T03:36:20;8.60;99.90
435;DHT22;204;48.942;9.256;2024-02-26T03:38:47;8.60;99.90
435;DHT22;204;48.942;9.256;2024-02-26T03:41:13;8.70;99.90
435;DHT22;204;48.942;9.256;2024-02-26T03:43:39;8.70;99.90
435;DHT22;204;48.942;9.256;2024-02-26T03:46:07;8.70;99.90
435;DHT22;204;48.942;9.256;2024-02-26T03:48:33;8.70;99.90
435;DHT22;204;48.942;9.256;2024-02-26T03:50:58;8.60;99.90
435;DHT22;204;48.942;9.256;2024-02-26T03:53:24;8.50;99.90
435;DHT22;204;48.942;9.256;2024-02-26T03:55:49;8.50;99.90
435;DHT22;204;48.942;9.256;2024-02-26T03:58:17;8.50;99.90
435;DHT22;204;48.942;9.256;2024-02-26T04:00:43;8.50;99.90
435;DHT22;204;48.942;9.256;2024-02-26T04:03:09;8.30;99.90
435;DHT22;204;48.942;9.256;2024-02-26T04:05:34;8.20;99.90
435;DHT22;204;48.942;9.256;2024-02-26T04:08:00;8.10;99.90
435;DHT22;204;48.942;9.256;2024-02-26T04:10:25;8.00;99.90
435;DHT22;204;48.942;9.256;2024-02-26T04:12:51;7.90;99.90
435;DHT22;204;48.942;9.256;2024-02-26T04:15:16;7.80;99.90
435;DHT22;204;48.942;9.256;2024-02-26T04:17:42;7.70;99.90
435;DHT22;204;48.942;9.256;2024-02-26T04:20:13;7.50;99.90
435;DHT22;204;48.942;9.256;2024-02-26T04:22:39;7.50;99.90
435;DHT22;204;48.942;9.256;2024-02-26T04:25:05;7.40;99.90
435;DHT22;204;48.942;9.256;2024-02-26T04:27:30;7.40;99.90
435;DHT22;204;48.942;9.256;2024-02-26T04:29:56;7.40;99.90
435;DHT22;204;48.942;9.256;2024-02-26T04:32:22;7.40;99.90
435;DHT22;204;48.942;9.256;2024-02-26T04:34:48;7.50;99.90
435;DHT22;204;48.942;9.256;2024-02-26T04:37:13;7.50;99.90
435;DHT22;204;48.942;9.256;2024-02-26T04:39:39;7.60;99.90
435;DHT22;204;48.942;9.256;2024-02-26T04:42:04;7.60;99.90
435;DHT22;204;48.942;9.256;2024-02-26T04:44:30;7.50;99.90
435;DHT22;204;48.942;9.256;2024-02-26T04:46:56;7.50;99.90
435;DHT22;204;48.942;9.256;2024-02-26T04:49:21;7.50;99.90
435;DHT22;204;48.942;9.256;2024-02-26T04:51:47;7.50;99.90
435;DHT22;204;48.942;9.256;2024-02-26T04:54:13;7.50;99.90
435;DHT22;204;48.942;9.256;2024-02-26T04:56:39;7.50;99.90
435;DHT22;204;48.942;9.256;2024-02-26T04:59:04;7.40;99.90
435;DHT22;204;48.942;9.256;2024-02-26T05:01:30;7.40;99.90
435;DHT22;204;48.942;9.256;2024-02-26T05:03:55;7.50;99.90
435;DHT22;204;48.942;9.256;2024-02-26T05:06:21;7.50;99.90
435;DHT22;204;48.942;9.256;2024-02-26T05:08:47;7.50;99.90
435;DHT22;204;48.942;9.256;2024-02-26T05:11:12;7.50;99.90
435;DHT22;204;48.942;9.256;2024-02-26T05:13:38;7.60;99.90
435;DHT22;204;48.942;9.256;2024-02-26T05:16:03;7.70;99.90
435;DHT22;204;48.942;9.256;2024-02-26T05:18:29;7.80;99.90
435;DHT22;204;48.942;9.256;2024-02-26T05:20:55;7.80;99.90
435;DHT22;204;48.942;9.256;2024-02-26T05:23:20;7.90;99.90
435;DHT22;204;48.942;9.256;2024-02-26T05:25:46;8.00;99.90
435;DHT22;204;48.942;9.256;2024-02-26T05:28:13;8.10;99.90
435;DHT22;204;48.942;9.256;2024-02-26T05:30:41;8.10;99.90
435;DHT22;204;48.942;9.256;2024-02-26T05:33:06;8.10;99.90
435;DHT22;204;48.942;9.256;2024-02-26T05:35:32;8.10;99.90
435;DHT22;204;48.942;9.256;2024-02-26T05:37:58;8.20;99.90
435;DHT22;204;48.942;9.256;2024-02-26T05:40:23;8.20;99.90
435;DHT22;204;48.942;9.256;2024-02-26T05:42:49;8.30;99.90
435;DHT22;204;48.942;9.256;2024-02-26T05:45:14;8.30;99.90
435;DHT22;204;48.942;9.256;2024-02-26T05:47:40;8.30;99.90
435;DHT22;204;48.942;9.256;2024-02-26T05:50:09;8.30;99.90
435;DHT22;204;48.942;9.256;2024-02-26T05:52:39;8.30;99.90
435;DHT22;204;48.942;9.256;2024-02-26T05:55:06;8.30;99.90
435;DHT22;204;48.942;9.256;2024-02-26T05:57:32;8.40;99.90
435;DHT22;204;48.942;9.256;2024-02-26T05:59:58;8.40;99.90
435;DHT22;204;48.942;9.256;2024-02-26T06:02:31;8.40;99.90
435;DHT22;204;48.942;9.256;2024-02-26T06:04:58;8.40;99.90
435;DHT22;204;48.942;9.256;2024-02-26T06:07:23;8.40;99.90
435;DHT22;204;48.942;9.256;2024-02-26T06:09:49;8.40;99.90
435;DHT22;204;48.942;9.256;2024-02-26T06:12:15;8.50;99.90
435;DHT22;204;48.942;9.256;2024-02-26T06:14:43;8.50;99.90
435;DHT22;204;48.942;9.256;2024-02-26T06:17:08;8.50;99.90
435;DHT22;204;48.942;9.256;2024-02-26T06:19:34;8.50;99.90
435;DHT22;204;48.942;9.256;2024-02-26T06:22:00;8.50;99.90
435;DHT22;204;48.942;9.256;2024-02-26T06:24:25;8.50;99.90
435;DHT22;204;48.942;9.256;2024-02-26T06:26:51;8.60;99.90
435;DHT22;204;48.942;9.256;2024-02-26T06:29:16;8.60;99.90
435;DHT22;204;48.942;9.256;2024-02-26T06:31:42;8.50;99.90
435;DHT22;204;48.942;9.256;2024-02-26T06:34:08;8.50;99.90
435;DHT22;204;48.942;9.256;2024-02-26T06:36:33;8.40;99.90
435;DHT22;204;48.942;9.256;2024-02-26T06:39:00;8.40;99.90
435;DHT22;204;48.942;9.256;2024-02-26T06:41:25;8.40;99.90
435;DHT22;204;48.942;9.256;2024-02-26T06:43:56;8.30;99.90
435;DHT22;204;48.942;9.256;2024-02-26T06:46:22;8.30;99.90
435;DHT22;204;48.942;9.256;2024-02-26T06:48:48;8.20;99.90
435;DHT22;204;48.942;9.256;2024-02-26T06:51:14;8.20;1.00
435;DHT22;204;48.942;9.256;2024-02-26T06:53:40;8.10;1.00
435;DHT22;204;48.942;9.256;2024-02-26T06:56:05;8.10;99.90
435;DHT22;204;48.942;9.256;2024-02-26T06:58:31;8.10;99.90
435;DHT22;204;48.942;9.256;2024-02-26T07:00:57;8.20;99.90
435;DHT22;204;48.942;9.256;2024-02-26T07:03:22;8.20;99.90
435;DHT22;204;48.942;9.256;2024-02-26T07:05:48;8.20;99.90
435;DHT22;204;48.942;9.256;2024-02-26T07:08:14;8.20;99.90
435;DHT22;204;48.942;9.256;2024-02-26T07:10:39;8.30;99.90
435;DHT22;204;48.942;9.256;2024-02-26T07:13:05;8.30;99.90
435;DHT22;204;48.942;9.256;2024-02-26T07:15:30;8.30;99.90
435;DHT22;204;48.942;9.256;2024-02-26T07:17:57;8.40;99.90
435;DHT22;204;48.942;9.256;2024-02-26T07:20:28;8.50;99.90
435;DHT22;204;48.942;9.256;2024-02-26T07:22:54;8.60;99.90
435;DHT22;204;48.942;9.256;2024-02-26T07:25:19;8.70;99.90
435;DHT22;204;48.942;9.256;2024-02-26T07:27:46;8.80;99.90
435;DHT22;204;48.942;9.256;2024-02-26T07:30:12;8.90;99.90
435;DHT22;204;48.942;9.256;2024-02-26T07:32:38;9.00;99.90
435;DHT22;204;48.942;9.256;2024-02-26T07:35:03;9.10;99.90
435;DHT22;204;48.942;9.256;2024-02-26T07:37:29;9.20;99.90
435;DHT22;204;48.942;9.256;2024-02-26T07:39:55;9.30;99.90
435;DHT22;204;48.942;9.256;2024-02-26T07:42:20;9.40;99.90
435;DHT22;204;48.942;9.256;2024-02-26T07:44:47;9.50;99.90
435;DHT22;204;48.942;9.256;2024-02-26T07:47:13;9.60;99.90
435;DHT22;204;48.942;9.256;2024-02-26T07:49:40;9.60;99.90
435;DHT22;204;48.942;9.256;2024-02-26T07:52:06;9.70;99.90
435;DHT22;204;48.942;9.256;2024-02-26T07:54:31;9.70;99.90
435;DHT22;204;48.942;9.256;2024-02-26T07:56:57;9.80;99.90
435;DHT22;204;48.942;9.256;2024-02-26T07:59:22;9.80;99.90
435;DHT22;204;48.942;9.256;2024-02-26T08:01:51;9.70;99.90
435;DHT22;204;48.942;9.256;2024-02-26T08:04:17;9.60;99.90
435;DHT22;204;48.942;9.256;2024-02-26T08:06:42;9.50;99.90
435;DHT22;204;48.942;9.256;2024-02-26T08:09:08;9.50;99.90
435;DHT22;204;48.942;9.256;2024-02-26T08:11:34;9.50;99.90
435;DHT22;204;48.942;9.256;2024-02-26T08:13:59;9.60;99.90
435;DHT22;204;48.942;9.256;2024-02-26T08:16:25;9.70;99.90
435;DHT22;204;48.942;9.256;2024-02-26T08:18:50;9.70;99.90
435;DHT22;204;48.942;9.256;2024-02-26T08:21:16;9.70;99.90
435;DHT22;204;48.942;9.256;2024-02-26T08:23:43;9.70;99.90
435;DHT22;204;48.942;9.256;2024-02-26T08:26:09;9.80;99.90
435;DHT22;204;48.942;9.256;2024-02-26T08:28:37;9.90;99.90
435;DHT22;204;48.942;9.256;2024-02-26T08:31:03;10.00;99.90
435;DHT22;204;48.942;9.256;2024-02-26T08:33:28;9.90;99.90
435;DHT22;204;48.942;9.256;2024-02-26T08:35:54;10.00;99.90
435;DHT22;204;48.942;9.256;2024-02-26T08:38:20;10.00;99.90
435;DHT22;204;48.942;9.256;2024-02-26T08:40:45;9.90;99.90
435;DHT22;204;48.942;9.256;2024-02-26T08:43:11;9.70;99.90
435;DHT22;204;48.942;9.256;2024-02-26T08:45:37;9.60;99.90
435;DHT22;204;48.942;9.256;2024-02-26T08:48:03;9.40;1.00
435;DHT22;204;48.942;9.256;2024-02-26T08:50:28;9.40;1.00
435;DHT22;204;48.942;9.256;2024-02-26T08:52:54;9.30;1.00
435;DHT22;204;48.942;9.256;2024-02-26T08:55:19;9.50;1.00
435;DHT22;204;48.942;9.256;2024-02-26T08:57:45;9.60;1.00
435;DHT22;204;48.942;9.256;2024-02-26T09:00:11;9.70;1.00
435;DHT22;204;48.942;9.256;2024-02-26T09:02:37;9.70;1.00
435;DHT22;204;48.942;9.256;2024-02-26T09:05:08;9.80;1.00
435;DHT22;204;48.942;9.256;2024-02-26T09:07:33;9.90;1.00
435;DHT22;204;48.942;9.256;2024-02-26T09:09:59;10.00;99.90
435;DHT22;204;48.942;9.256;2024-02-26T09:12:24;10.00;99.90
435;DHT22;204;48.942;9.256;2024-02-26T09:14:50;10.10;99.90
435;DHT22;204;48.942;9.256;2024-02-26T09:17:15;10.20;99.90
435;DHT22;204;48.942;9.256;2024-02-26T09:19:41;10.40;99.90
435;DHT22;204;48.942;9.256;2024-02-26T09:22:07;10.60;99.90
435;DHT22;204;48.942;9.256;2024-02-26T09:24:33;10.80;99.90
435;DHT22;204;48.942;9.256;2024-02-26T09:26:59;11.10;99.90
435;DHT22;204;48.942;9.256;2024-02-26T09:29:24;11.40;99.90
435;DHT22;204;48.942;9.256;2024-02-26T09:31:51;11.70;99.90
435;DHT22;204;48.942;9.256;2024-02-26T09:34:17;11.90;99.90
435;DHT22;204;48.942;9.256;2024-02-26T09:36:43;12.10;99.90
435;DHT22;204;48.942;9.256;2024-02-26T09:39:09;12.10;99.90
435;DHT22;204;48.942;9.256;2024-02-26T09:41:37;12.20;99.90
435;DHT22;204;48.942;9.256;2024-02-26T09:44:03;12.30;99.90
435;DHT22;204;48.942;9.256;2024-02-26T09:46:30;12.40;99.90
435;DHT22;204;48.942;9.256;2024-02-26T09:48:56;12.30;99.90
435;DHT22;204;48.942;9.256;2024-02-26T09:51:26;12.30;99.90
435;DHT22;204;48.942;9.256;2024-02-26T09:53:52;12.30;99.90
435;DHT22;204;48.942;9.256;2024-02-26T09:56:18;12.30;99.90
435;DHT22;204;48.942;9.256;2024-02-26T09:58:45;12.30;99.90
435;DHT22;204;48.942;9.256;2024-02-26T10:01:17;12.30;99.90
435;DHT22;204;48.942;9.256;2024-02-26T10:03:44;12.30;99.90
435;DHT22;204;48.942;9.256;2024-02-26T10:06:11;12.40;99.90
435;DHT22;204;48.942;9.256;2024-02-26T10:08:37;12.70;99.90
435;DHT22;204;48.942;9.256;2024-02-26T10:11:13;12.90;99.90
435;DHT22;204;48.942;9.256;2024-02-26T10:13:40;13.30;99.90
435;DHT22;204;48.942;9.256;2024-02-26T10:16:07;13.50;99.90
435;DHT22;204;48.942;9.256;2024-02-26T10:18:52;13.70;99.90
435;DHT22;204;48.942;9.256;2024-02-26T10:21:22;13.90;99.90
435;DHT22;204;48.942;9.256;2024-02-26T10:23:48;13.90;99.90
435;DHT22;204;48.942;9.256;2024-02-26T10:26:15;14.10;99.90
435;DHT22;204;48.942;9.256;2024-02-26T10:28:44;14.20;99.90
435;DHT22;204;48.942;9.256;2024-02-26T10:31:11;14.30;99.90
435;DHT22;204;48.942;9.256;2024-02-26T10:33:38;14.50;99.90
435;DHT22;204;48.942;9.256;2024-02-26T10:36:07;14.60;99.90
435;DHT22;204;48.942;9.256;2024-02-26T10:38:37;14.50;99.90
435;DHT22;204;48.942;9.256;2024-02-26T10:41:06;14.40;99.90
435;DHT22;204;48.942;9.256;2024-02-26T10:43:32;14.30;99.90
435;DHT22;204;48.942;9.256;2024-02-26T10:45:58;14.20;99.90
435;DHT22;204;48.942;9.256;2024-02-26T10:48:24;14.00;99.90
435;DHT22;204;48.942;9.256;2024-02-26T10:50:49;14.10;99.90
435;DHT22;204;48.942;9.256;2024-02-26T10:53:29;14.10;99.90
435;DHT22;204;48.942;9.256;2024-02-26T10:55:57;14.20;99.90
435;DHT22;204;48.942;9.256;2024-02-26T10:58:25;14.30;99.90
435;DHT22;204;48.942;9.256;2024-02-26T11:00:52;14.50;99.90
435;DHT22;204;48.942;9.256;2024-02-26T11:03:18;14.60;99.90
435;DHT22;204;48.942;9.256;2024-02-26T11:05:49;14.60;99.90
435;DHT22;204;48.942;9.256;2024-02-26T11:08:18;14.60;99.90
435;DHT22;204;48.942;9.256;2024-02-26T11:10:47;14.50;99.90
435;DHT22;204;48.942;9.256;2024-02-26T11:13:14;14.40;99.90
435;DHT22;204;48.942;9.256;2024-02-26T11:15:40;14.30;99.90
435;DHT22;204;48.942;9.256;2024-02-26T11:18:07;14.30;99.90
435;DHT22;204;48.942;9.256;2024-02-26T11:20:34;14.20;99.90
435;DHT22;204;48.942;9.256;2024-02-26T11:23:03;14.30;99.90
435;DHT22;204;48.942;9.256;2024-02-26T11:25:29;14.30;99.90
435;DHT22;204;48.942;9.256;2024-02-26T11:27:58;14.20;99.90
435;DHT22;204;48.942;9.256;2024-02-26T11:30:30;14.10;99.90
435;DHT22;204;48.942;9.256;2024-02-26T11:32:56;14.00;99.90
435;DHT22;204;48.942;9.256;2024-02-26T11:35:23;13.80;99.90
435;DHT22;204;48.942;9.256;2024-02-26T11:37:56;13.80;99.90
435;DHT22;204;48.942;9.256;2024-02-26T11:40:24;13.80;99.90
435;DHT22;204;48.942;9.256;2024-02-26T11:42:51;13.80;99.90
435;DHT22;204;48.942;9.256;2024-02-26T11:48:15;13.90;99.90
435;DHT22;204;48.942;9.256;2024-02-26T11:50:42;14.00;99.90
435;DHT22;204;48.942;9.256;2024-02-26T11:53:46;14.10;99.90
435;DHT22;204;48.942;9.256;2024-02-26T11:58:45;14.50;99.90
435;DHT22;204;48.942;9.256;2024-02-26T12:04:06;14.80;99.90
435;DHT22;204;48.942;9.256;2024-02-26T12:09:11;15.20;99.90
435;DHT22;204;48.942;9.256;2024-02-26T12:11:39;15.20;99.90
435;DHT22;204;48.942;9.256;2024-02-26T12:14:07;15.10;99.90
435;DHT22;204;48.942;9.256;2024-02-26T12:16:39;15.00;99.90
435;DHT22;204;48.942;9.256;2024-02-26T12:19:08;15.00;99.90
435;DHT22;204;48.942;9.256;2024-02-26T12:21:35;15.10;99.90
435;DHT22;204;48.942;9.256;2024-02-26T12:24:13;15.10;99.90
435;DHT22;204;48.942;9.256;2024-02-26T12:26:39;15.10;99.90
435;DHT22;204;48.942;9.256;2024-02-26T12:29:05;15.10;99.90
435;DHT22;204;48.942;9.256;2024-02-26T12:31:32;15.20;99.90
435;DHT22;204;48.942;9.256;2024-02-26T12:33:59;15.40;99.90
435;DHT22;204;48.942;9.256;2024-02-26T12:36:24;15.50;99.90
435;DHT22;204;48.942;9.256;2024-02-26T12:38:51;15.50;99.90
435;DHT22;204;48.942;9.256;2024-02-26T12:41:17;15.70;99.90
435;DHT22;204;48.942;9.256;2024-02-26T12:43:42;15.90;99.90
435;DHT22;204;48.942;9.256;2024-02-26T12:46:08;16.10;99.90
435;DHT22;204;48.942;9.256;2024-02-26T12:48:33;16.20;99.90
435;DHT22;204;48.942;9.256;2024-02-26T12:50:59;16.60;99.90
435;DHT22;204;48.942;9.256;2024-02-26T12:53:26;16.80;99.90
435;DHT22;204;48.942;9.256;2024-02-26T12:55:56;16.80;99.90
435;DHT22;204;48.942;9.256;2024-02-26T12:58:22;17.00;99.90
435;DHT22;204;48.942;9.256;2024-02-26T13:00:51;17.10;99.90
435;DHT22;204;48.942;9.256;2024-02-26T13:03:17;17.20;99.90
435;DHT22;204;48.942;9.256;2024-02-26T13:05:43;17.20;99.90
435;DHT22;204;48.942;9.256;2024-02-26T13:08:10;17.30;99.90
435;DHT22;204;48.942;9.256;2024-02-26T13:10:42;17.40;99.90
435;DHT22;204;48.942;9.256;2024-02-26T13:13:08;17.20;99.90
435;DHT22;204;48.942;9.256;2024-02-26T13:15:34;17.20;99.90
435;DHT22;204;48.942;9.256;2024-02-26T13:18:12;17.20;99.90
435;DHT22;204;48.942;9.256;2024-02-26T13:20:38;17.20;99.90
435;DHT22;204;48.942;9.256;2024-02-26T13:23:07;17.30;99.90
435;DHT22;204;48.942;9.256;2024-02-26T13:25:34;17.40;99.90
435;DHT22;204;48.942;9.256;2024-02-26T13:28:16;17.60;99.90
435;DHT22;204;48.942;9.256;2024-02-26T13:30:57;17.70;99.90
435;DHT22;204;48.942;9.256;2024-02-26T13:33:23;17.80;99.90
435;DHT22;204;48.942;9.256;2024-02-26T13:35:49;17.70;99.90
435;DHT22;204;48.942;9.256;2024-02-26T13:38:15;17.60;99.90
435;DHT22;204;48.942;9.256;2024-02-26T13:40:40;17.60;99.90
435;DHT22;204;48.942;9.256;2024-02-26T13:43:06;17.50;99.90
435;DHT22;204;48.942;9.256;2024-02-26T13:45:35;17.50;99.90
435;DHT22;204;48.942;9.256;2024-02-26T13:48:02;17.30;99.90
435;DHT22;204;48.942;9.256;2024-02-26T13:50:28;17.20;99.90
435;DHT22;204;48.942;9.256;2024-02-26T13:52:54;17.00;99.90
435;DHT22;204;48.942;9.256;2024-02-26T13:55:22;16.90;99.90
435;DHT22;204;48.942;9.256;2024-02-26T13:57:49;17.10;99.90
435;DHT22;204;48.942;9.256;2024-02-26T14:00:17;17.10;99.90
435;DHT22;204;48.942;9.256;2024-02-26T14:02:43;17.10;99.90
435;DHT22;204;48.942;9.256;2024-02-26T14:05:08;17.10;99.90
435;DHT22;204;48.942;9.256;2024-02-26T14:07:34;17.00;99.90
435;DHT22;204;48.942;9.256;2024-02-26T14:10:00;17.10;99.90
435;DHT22;204;48.942;9.256;2024-02-26T14:12:25;17.00;99.90
435;DHT22;204;48.942;9.256;2024-02-26T14:14:51;16.90;99.90
435;DHT22;204;48.942;9.256;2024-02-26T14:17:19;16.70;99.90
435;DHT22;204;48.942;9.256;2024-02-26T14:19:44;16.70;99.90
435;DHT22;204;48.942;9.256;2024-02-26T14:22:11;16.60;99.90
435;DHT22;204;48.942;9.256;2024-02-26T14:24:37;16.60;99.90
435;DHT22;204;48.942;9.256;2024-02-26T14:27:02;16.60;99.90
435;DHT22;204;48.942;9.256;2024-02-26T14:29:29;16.70;99.90
435;DHT22;204;48.942;9.256;2024-02-26T14:31:55;16.70;99.90
435;DHT22;204;48.942;9.256;2024-02-26T14:34:22;16.70;99.90
435;DHT22;204;48.942;9.256;2024-02-26T14:36:47;16.70;99.90
435;DHT22;204;48.942;9.256;2024-02-26T14:39:13;16.70;99.90
435;DHT22;204;48.942;9.256;2024-02-26T14:41:39;16.80;99.90
435;DHT22;204;48.942;9.256;2024-02-26T14:44:05;16.90;99.90
435;DHT22;204;48.942;9.256;2024-02-26T14:46:31;16.90;99.90
435;DHT22;204;48.942;9.256;2024-02-26T14:48:56;16.80;99.90
435;DHT22;204;48.942;9.256;2024-02-26T14:51:23;16.80;99.90
435;DHT22;204;48.942;9.256;2024-02-26T14:53:49;16.70;99.90
435;DHT22;204;48.942;9.256;2024-02-26T14:56:14;16.70;99.90
435;DHT22;204;48.942;9.256;2024-02-26T14:58:40;16.70;99.90
435;DHT22;204;48.942;9.256;2024-02-26T15:01:06;16.70;99.90
435;DHT22;204;48.942;9.256;2024-02-26T15:03:32;16.60;99.90
435;DHT22;204;48.942;9.256;2024-02-26T15:05:58;16.60;99.90
435;DHT22;204;48.942;9.256;2024-02-26T15:08:24;16.50;99.90
435;DHT22;204;48.942;9.256;2024-02-26T15:10:49;16.30;99.90
435;DHT22;204;48.942;9.256;2024-02-26T15:13:15;16.10;99.90
435;DHT22;204;48.942;9.256;2024-02-26T15:15:41;16.10;99.90
435;DHT22;204;48.942;9.256;2024-02-26T15:18:07;16.10;99.90
435;DHT22;204;48.942;9.256;2024-02-26T15:20:33;16.10;99.90
435;DHT22;204;48.942;9.256;2024-02-26T15:22:59;16.00;99.90
435;DHT22;204;48.942;9.256;2024-02-26T15:25:25;15.90;99.90
435;DHT22;204;48.942;9.256;2024-02-26T15:27:50;15.70;99.90
435;DHT22;204;48.942;9.256;2024-02-26T15:30:16;15.70;99.90
435;DHT22;204;48.942;9.256;2024-02-26T15:32:41;15.50;99.90
435;DHT22;204;48.942;9.256;2024-02-26T15:35:09;15.40;99.90
435;DHT22;204;48.942;9.256;2024-02-26T15:37:35;15.30;99.90
435;DHT22;204;48.942;9.256;2024-02-26T15:40:01;15.30;99.90
435;DHT22;204;48.942;9.256;2024-02-26T15:42:29;15.20;99.90
435;DHT22;204;48.942;9.256;2024-02-26T15:44:55;15.10;99.90
435;DHT22;204;48.942;9.256;2024-02-26T15:47:21;15.00;99.90
435;DHT22;204;48.942;9.256;2024-02-26T15:49:46;14.90;99.90
435;DHT22;204;48.942;9.256;2024-02-26T15:52:12;14.80;99.90
435;DHT22;204;48.942;9.256;2024-02-26T15:54:38;14.70;99.90
435;DHT22;204;48.942;9.256;2024-02-26T15:57:05;14.60;99.90
435;DHT22;204;48.942;9.256;2024-02-26T15:59:30;14.40;99.90
435;DHT22;204;48.942;9.256;2024-02-26T16:01:56;14.30;99.90
435;DHT22;204;48.942;9.256;2024-02-26T16:04:22;14.30;99.90
435;DHT22;204;48.942;9.256;2024-02-26T16:06:50;14.20;99.90
435;DHT22;204;48.942;9.256;2024-02-26T16:09:16;14.10;99.90
435;DHT22;204;48.942;9.256;2024-02-26T16:11:42;14.00;99.90
435;DHT22;204;48.942;9.256;2024-02-26T16:14:30;13.90;99.90
435;DHT22;204;48.942;9.256;2024-02-26T16:17:14;13.90;99.90
435;DHT22;204;48.942;9.256;2024-02-26T16:19:41;13.80;99.90
435;DHT22;204;48.942;9.256;2024-02-26T16:22:07;13.70;99.90
435;DHT22;204;48.942;9.256;2024-02-26T16:24:33;13.60;99.90
435;DHT22;204;48.942;9.256;2024-02-26T16:26:58;13.60;99.90
435;DHT22;204;48.942;9.256;2024-02-26T16:29:24;13.60;99.90
435;DHT22;204;48.942;9.256;2024-02-26T16:31:49;13.50;99.90
435;DHT22;204;48.942;9.256;2024-02-26T16:34:15;13.40;99.90
435;DHT22;204;48.942;9.256;2024-02-26T16:36:41;13.40;99.90
435;DHT22;204;48.942;9.256;2024-02-26T16:39:06;13.30;99.90
435;DHT22;204;48.942;9.256;2024-02-26T16:41:33;13.30;99.90
435;DHT22;204;48.942;9.256;2024-02-26T16:43:59;13.20;99.90
435;DHT22;204;48.942;9.256;2024-02-26T16:46:25;13.10;99.90
435;DHT22;204;48.942;9.256;2024-02-26T16:48:50;13.10;99.90
435;DHT22;204;48.942;9.256;2024-02-26T16:51:18;13.10;99.90